createdAt,value
2023-09-08T00:04:15.497Z,8.00
2023-09-08T00:09:17.687Z,8.90
2023-09-08T00:14:19.467Z,8.20
2023-09-08T00:19:21.852Z,8.30
2023-09-08T00:24:23.840Z,8.60
2023-09-08T00:29:25.773Z,9.00
2023-09-08T00:34:27.788Z,9.20
2023-09-08T00:39:29.769Z,9.80
2023-09-08T00:44:31.749Z,9.00
2023-09-08T00:49:33.930Z,10.00
2023-09-08T00:54:36.326Z,9.30
2023-09-08T00:59:38.811Z,10.10
2023-09-08T01:04:42.701Z,10.20
2023-09-08T01:09:46.438Z,10.30
2023-09-08T01:14:48.468Z,10.10
2023-09-08T01:19:55.742Z,9.60
2023-09-08T01:25:13.117Z,11.10
2023-09-08T01:30:16.094Z,10.20
2023-09-08T01:35:18.368Z,9.40
2023-09-08T01:40:20.353Z,8.70
2023-09-08T01:45:22.284Z,8.30
2023-09-08T01:50:25.548Z,8.60
2023-09-08T01:55:27.728Z,8.10
2023-09-08T02:00:29.609Z,9.20
2023-09-08T02:05:32.033Z,9.30
2023-09-08T02:10:34.022Z,9.80
2023-09-08T02:15:37.618Z,9.20
2023-09-08T02:20:39.670Z,9.40
2023-09-08T02:25:41.541Z,8.80
2023-09-08T02:30:43.620Z,9.30
2023-09-08T02:35:45.546Z,8.60
2023-09-08T02:40:47.482Z,9.10
2023-09-08T02:45:49.465Z,9.00
2023-09-08T02:50:51.441Z,9.20
2023-09-08T02:55:53.833Z,10.10
2023-09-08T03:00:56.017Z,9.40
2023-09-08T03:06:01.165Z,9.80
2023-09-08T03:11:05.077Z,9.80
2023-09-08T03:16:08.983Z,10.40
2023-09-08T03:21:14.271Z,10.30
2023-09-08T03:26:16.257Z,9.00
2023-09-08T03:31:18.931Z,9.00
2023-09-08T03:36:21.068Z,10.10
2023-09-08T03:41:22.912Z,10.20
2023-09-08T03:46:26.065Z,10.20
2023-09-08T03:51:29.016Z,9.60
2023-09-08T03:56:31.479Z,8.40
2023-09-08T04:01:33.618Z,8.90
2023-09-08T04:06:35.469Z,8.90
2023-09-08T04:11:37.451Z,8.70
2023-09-08T04:16:39.316Z,9.20
2023-09-08T04:21:42.123Z,9.40
2023-09-08T04:26:43.896Z,9.10
2023-09-08T04:31:45.707Z,8.40
2023-09-08T04:36:47.978Z,7.90
2023-09-08T04:41:49.940Z,9.10
2023-09-08T04:46:52.974Z,8.80
2023-09-08T04:51:54.714Z,7.90
2023-09-08T04:57:04.045Z,6.90
2023-09-08T05:02:14.145Z,5.60
2023-09-08T05:07:16.640Z,5.10
2023-09-08T05:12:18.507Z,4.80
2023-09-08T05:17:20.386Z,4.90
2023-09-08T05:22:22.624Z,4.70
2023-09-08T05:27:25.005Z,5.10
2023-09-08T05:32:27.003Z,5.30
2023-09-08T05:37:29.020Z,5.60
2023-09-08T05:47:33.425Z,6.00
2023-09-08T05:52:35.419Z,5.80
2023-09-08T05:57:37.860Z,5.30
2023-09-08T06:02:40.180Z,5.20
2023-09-08T06:07:50.934Z,5.60
2023-09-08T06:12:59.359Z,5.80
2023-09-08T06:18:01.116Z,5.80
2023-09-08T06:23:03.424Z,6.10
2023-09-08T06:28:05.910Z,6.30
2023-09-08T06:33:09.281Z,5.90
2023-09-08T06:38:11.618Z,6.10
2023-09-08T06:43:13.592Z,5.50
2023-09-08T06:48:16.441Z,5.50
2023-09-08T06:53:18.677Z,4.80
2023-09-08T06:58:20.865Z,5.10
2023-09-08T07:03:23.789Z,4.70
2023-09-08T07:08:26.049Z,4.50
2023-09-08T07:13:28.117Z,4.20
2023-09-08T07:18:33.471Z,3.90
2023-09-08T07:23:37.517Z,3.70
2023-09-08T07:28:40.214Z,4.10
2023-09-08T07:33:42.293Z,3.70
2023-09-08T07:38:44.277Z,3.70
2023-09-08T07:43:46.357Z,3.10
2023-09-08T07:48:48.444Z,3.20
2023-09-08T07:53:50.356Z,2.90
2023-09-08T07:58:53.017Z,3.20
2023-09-08T08:03:54.968Z,2.90
2023-09-08T08:08:57.116Z,2.90
2023-09-08T08:13:59.050Z,3.00
2023-09-08T08:19:01.170Z,2.80
2023-09-08T08:24:03.705Z,2.70
2023-09-08T08:29:05.723Z,2.60
2023-09-08T08:34:09.655Z,2.80
2023-09-08T08:39:11.715Z,2.90
2023-09-08T08:44:16.253Z,2.90
2023-09-08T08:49:20.289Z,2.60
2023-09-08T08:54:22.629Z,2.30
2023-09-08T08:59:25.059Z,2.60
2023-09-08T09:04:27.876Z,2.50
2023-09-08T09:09:29.778Z,2.40
2023-09-08T09:14:35.673Z,2.50
2023-09-08T09:19:37.992Z,2.30
2023-09-08T09:24:43.988Z,2.60
2023-09-08T09:29:50.866Z,2.20
2023-09-08T09:34:54.288Z,2.30
2023-09-08T09:39:56.341Z,2.30
2023-09-08T09:45:01.028Z,2.40
2023-09-08T09:50:03.596Z,2.20
2023-09-08T09:55:06.289Z,2.40
2023-09-08T10:00:09.848Z,2.20
2023-09-08T10:05:15.371Z,2.40
2023-09-08T10:10:18.681Z,2.30
2023-09-08T10:15:23.639Z,2.20
2023-09-08T10:20:27.083Z,2.60
2023-09-08T10:25:32.402Z,3.00
2023-09-08T10:30:35.093Z,3.00
2023-09-08T10:35:37.180Z,2.90
2023-09-08T10:40:40.194Z,3.00
2023-09-08T10:45:43.006Z,2.90
2023-09-08T10:50:45.265Z,3.00
2023-09-08T10:55:56.808Z,2.90
2023-09-08T11:01:13.185Z,3.00
2023-09-08T11:06:18.983Z,3.20
2023-09-08T11:11:21.224Z,2.90
2023-09-08T11:16:30.108Z,3.10
2023-09-08T11:21:37.038Z,3.00
2023-09-08T11:26:39.162Z,3.00
2023-09-08T11:31:42.589Z,3.30
2023-09-08T11:36:44.477Z,3.00
2023-09-08T11:41:46.355Z,3.00
2023-09-08T11:46:50.138Z,3.30
2023-09-08T11:51:52.061Z,2.80
2023-09-08T11:56:54.837Z,3.40
2023-09-08T12:01:57.918Z,3.20
2023-09-08T12:07:00.345Z,3.40
2023-09-08T12:12:04.036Z,3.10
2023-09-08T12:17:09.685Z,3.40
2023-09-08T12:22:13.484Z,2.90
2023-09-08T12:27:17.507Z,3.10
2023-09-08T12:32:20.931Z,3.00
2023-09-08T12:37:24.381Z,3.20
2023-09-08T12:42:26.984Z,3.00
2023-09-08T12:47:29.589Z,3.10
2023-09-08T12:52:32.621Z,3.10
2023-09-08T12:57:36.321Z,3.40
2023-09-08T13:02:38.938Z,3.30
2023-09-08T13:07:41.482Z,3.10
2023-09-08T13:12:47.700Z,3.20
2023-09-08T13:17:49.685Z,3.10
2023-09-08T13:22:51.649Z,3.10
2023-09-08T13:27:53.543Z,3.20
2023-09-08T13:32:56.765Z,3.60
2023-09-08T13:38:00.757Z,3.10
2023-09-08T13:43:03.342Z,3.30
2023-09-08T13:48:07.477Z,3.30
2023-09-08T13:53:10.044Z,3.00
2023-09-08T13:58:12.789Z,3.20
2023-09-08T14:03:19.691Z,3.40
2023-09-08T14:13:29.227Z,3.10
2023-09-08T14:18:31.425Z,3.60
2023-09-08T14:23:35.180Z,3.30
2023-09-08T14:28:37.325Z,3.50
2023-09-08T14:38:41.501Z,3.50
2023-09-08T14:48:45.288Z,3.20
2023-09-08T14:53:47.862Z,3.10
2023-09-08T14:58:50.438Z,3.60
2023-09-08T15:08:54.853Z,3.70
2023-09-08T15:13:56.972Z,3.40
2023-09-08T15:18:58.960Z,3.60
2023-09-08T15:24:02.472Z,3.40
2023-09-08T15:29:05.989Z,3.40
2023-09-08T15:34:08.585Z,3.80
2023-09-08T15:39:10.507Z,4.00
2023-09-08T15:49:14.269Z,3.60
2023-09-08T15:54:17.036Z,3.70
2023-09-08T15:59:19.249Z,4.30
2023-09-08T16:04:21.735Z,3.80
2023-09-08T16:09:23.881Z,3.70
2023-09-08T16:14:26.392Z,3.40
2023-09-08T16:19:29.477Z,3.90
2023-09-08T16:24:32.835Z,3.50
2023-09-08T16:29:35.178Z,3.70
2023-09-08T16:34:37.322Z,3.40
2023-09-08T16:39:39.981Z,3.60
2023-09-08T16:49:47.759Z,3.40
2023-09-08T16:54:50.907Z,3.30
2023-09-08T16:59:53.439Z,3.60
2023-09-08T17:04:55.680Z,3.60
2023-09-08T17:09:58.074Z,3.20
2023-09-08T17:20:03.413Z,3.70
2023-09-08T17:25:07.389Z,3.60
2023-09-08T17:30:11.258Z,4.00
2023-09-08T17:35:13.190Z,3.80
2023-09-08T17:40:15.068Z,3.80
2023-09-08T17:45:17.459Z,3.90
2023-09-08T17:50:19.846Z,4.60
2023-09-08T17:55:21.730Z,4.60
2023-09-08T18:00:23.611Z,5.20
2023-09-08T18:05:26.849Z,5.10
2023-09-08T18:10:29.012Z,5.10
2023-09-08T18:15:31.318Z,4.80
2023-09-08T18:20:36.436Z,5.40
2023-09-08T18:25:38.545Z,5.00
2023-09-08T18:30:45.311Z,12.50
2023-09-08T18:35:47.287Z,10.30
2023-09-08T18:40:49.173Z,11.10
2023-09-08T18:45:51.967Z,11.70
2023-09-08T18:50:54.455Z,10.00
2023-09-08T19:01:03.270Z,8.20
2023-09-08T19:06:05.718Z,7.50
2023-09-08T19:11:07.879Z,7.10
2023-09-08T19:16:10.426Z,7.80
2023-09-08T19:21:14.015Z,8.40
2023-09-08T19:26:16.924Z,8.40
2023-09-08T19:31:19.343Z,11.20
2023-09-08T19:36:21.589Z,10.10
2023-09-08T19:41:25.071Z,10.80
2023-09-08T19:46:28.141Z,13.40
2023-09-08T19:51:31.323Z,16.50
2023-09-08T19:56:34.012Z,13.30
2023-09-08T20:01:36.897Z,14.90
2023-09-08T20:06:39.612Z,13.60
2023-09-08T20:11:43.357Z,14.80
2023-09-08T20:16:45.558Z,12.90
2023-09-08T20:21:47.706Z,12.30
2023-09-08T20:26:50.503Z,12.10
2023-09-08T20:31:56.002Z,13.00
2023-09-08T20:36:58.350Z,13.00
2023-09-08T20:42:00.845Z,11.80
2023-09-08T20:47:03.237Z,11.10
2023-09-08T20:52:05.937Z,11.50
2023-09-08T20:57:07.814Z,10.40
2023-09-08T21:02:09.901Z,11.50
2023-09-08T21:07:11.764Z,11.80
2023-09-08T21:12:14.173Z,11.70
2023-09-08T21:17:16.139Z,11.30
2023-09-08T21:22:18.012Z,11.70
2023-09-08T21:27:19.885Z,11.60
2023-09-08T21:32:24.534Z,27.60
2023-09-08T21:37:26.302Z,18.40
2023-09-08T21:42:28.184Z,13.30
2023-09-08T21:47:31.201Z,19.40
2023-09-08T21:57:41.704Z,16.20
2023-09-08T22:02:44.150Z,15.40
2023-09-08T22:07:46.270Z,14.10
2023-09-08T22:12:48.741Z,16.40
2023-09-08T22:17:51.177Z,16.30
2023-09-08T22:22:53.640Z,13.50
2023-09-08T22:27:59.000Z,10.50
2023-09-08T22:33:01.488Z,9.50
2023-09-08T22:38:04.094Z,9.10
2023-09-08T22:43:05.961Z,10.40
2023-09-08T22:48:07.787Z,9.40
2023-09-08T22:53:11.045Z,12.70
2023-09-08T22:58:16.161Z,11.60
2023-09-08T23:03:18.271Z,13.60
2023-09-08T23:08:20.775Z,15.40
2023-09-08T23:13:22.960Z,15.20
2023-09-08T23:18:25.006Z,13.20
2023-09-08T23:23:27.018Z,14.20
2023-09-08T23:28:29.001Z,14.00
2023-09-08T23:33:33.112Z,63.90
2023-09-08T23:38:35.211Z,28.00
2023-09-08T23:43:37.609Z,23.80
2023-09-08T23:48:39.991Z,19.30
2023-09-08T23:53:41.863Z,17.30
2023-09-08T23:58:43.638Z,17.60
